Available data for KAFO from the past hour
Metar
KAFO 212215Z AUTO 00000KT 10SM BKN120 20/02 A2997 RMK AO2

22:15 UTC

Wind: 0° 0kt

Visibility: 10 SM

Sky: BKN 12000 ft

Temp: 20 deg C / 68 deg F

Dewpoint: 2 deg C / 35.6 deg F

Pressure: 29.97 inHg

The next Board Meeting is: Nov 13, 2017           The next Annual Meeting is: Jul 2018

IMG_1868

Please help us keep our taxiways free of debris. The taxiways are only for aircraft.